Time;durP1;ratioP1;P1;durP2;ratioP2;P2;SDS_P1;SDS_P2;PMS_P1;PMS_P2;Temp;Humidity;BMP_temperature;BMP_pressure;BME280_temperature;BME280_humidity;BME280_pressure;Samples;Min_cycle;Max_cycle;Signal;HPM_P1;HPM_P2
2022/08/21 00:02:30;;;;;;;2.75;1.90;;;17.60;59.50;;;;;;5032079;28;20667;-49
2022/08/21 00:05:01;;;;;;;1.80;1.70;;;17.60;59.50;;;;;;5031355;28;20208;-45
2022/08/21 00:07:31;;;;;;;1.80;1.65;;;17.60;59.50;;;;;;5031475;28;20216;-50
2022/08/21 00:10:02;;;;;;;2.15;1.92;;;17.70;59.50;;;;;;5050026;28;20275;-53
2022/08/21 00:12:35;;;;;;;2.10;1.90;;;17.70;59.50;;;;;;5051296;28;20587;-53
2022/08/21 00:15:06;;;;;;;2.67;2.30;;;17.60;59.50;;;;;;5050291;28;20230;-49
2022/08/21 00:17:38;;;;;;;2.72;2.15;;;17.70;59.50;;;;;;5051686;28;20302;-47
2022/08/21 00:20:10;;;;;;;3.50;1.90;;;17.70;60.20;;;;;;5051608;28;20204;-47
2022/08/21 00:22:41;;;;;;;2.90;2.10;;;17.70;59.60;;;;;;5050658;28;20302;-51
2022/08/21 00:25:13;;;;;;;2.53;1.98;;;17.70;59.60;;;;;;5051094;28;20191;-45
2022/08/21 00:27:46;;;;;;;2.42;2.08;;;17.70;59.60;;;;;;5051445;28;20255;-46
2022/08/21 00:30:19;;;;;;;11.80;2.67;;;17.70;59.10;;;;;;5039113;28;20597;-48
2022/08/21 00:32:50;;;;;;;3.67;2.33;;;17.80;59.80;;;;;;5031872;28;20204;-52
2022/08/21 00:35:24;;;;;;;3.15;2.05;;;17.80;59.70;;;;;;5030737;28;20219;-48
2022/08/21 00:37:54;;;;;;;4.25;2.00;;;17.90;59.50;;;;;;5038336;28;20211;-48
2022/08/21 00:40:28;;;;;;;4.90;2.20;;;18.00;59.50;;;;;;5050815;28;20200;-49
2022/08/21 00:43:01;;;;;;;3.20;2.00;;;17.90;59.40;;;;;;5051357;28;20206;-50
2022/08/21 00:45:32;;;;;;;4.68;1.98;;;17.90;59.50;;;;;;5051688;28;20207;-48
2022/08/21 00:48:03;;;;;;;2.95;1.83;;;17.90;59.50;;;;;;5050933;28;20215;-47
2022/08/21 00:50:37;;;;;;;3.47;2.00;;;18.00;59.50;;;;;;5051012;28;20203;-47
2022/08/21 00:53:10;;;;;;;3.80;1.98;;;18.00;59.50;;;;;;5051156;28;20210;-47
2022/08/21 00:55:41;;;;;;;3.15;1.80;;;18.00;59.40;;;;;;5051203;28;20597;-48
2022/08/21 00:58:16;;;;;;;2.35;1.90;;;18.00;59.40;;;;;;5050767;28;20223;-46
2022/08/21 01:00:50;;;;;;;2.60;1.60;;;18.00;59.40;;;;;;5050203;28;20195;-52
2022/08/21 01:03:22;;;;;;;2.97;1.70;;;18.00;59.30;;;;;;5050554;28;20281;-46
2022/08/21 01:05:53;;;;;;;1.85;1.52;;;18.00;59.30;;;;;;5049514;28;20200;-49
2022/08/21 01:08:25;;;;;;;3.40;2.03;;;18.00;59.30;;;;;;5048966;28;20219;-47
2022/08/21 01:10:57;;;;;;;3.15;1.63;;;18.10;59.40;;;;;;5050676;28;20192;-51
2022/08/21 01:13:31;;;;;;;2.63;2.00;;;18.10;59.40;;;;;;5050546;28;20210;-46
2022/08/21 01:16:05;;;;;;;2.22;1.83;;;18.10;59.40;;;;;;5051065;28;20284;-46
2022/08/21 01:18:36;;;;;;;3.30;1.92;;;18.10;59.40;;;;;;5050753;28;20211;-47
2022/08/21 01:21:11;;;;;;;2.42;1.70;;;18.10;59.40;;;;;;5048976;28;20559;-45
2022/08/21 01:23:45;;;;;;;2.65;1.67;;;18.20;59.40;;;;;;5038028;28;20199;-48
2022/08/21 01:26:17;;;;;;;2.67;1.77;;;18.20;59.50;;;;;;5048742;28;20206;-49
2022/08/21 01:28:55;;;;;;;2.67;1.73;;;18.20;59.60;;;;;;5044528;28;20290;-54
2022/08/21 01:31:27;;;;;;;2.28;1.67;;;18.20;59.50;;;;;;5048330;28;20619;-48
2022/08/21 01:33:59;;;;;;;2.03;1.50;;;18.20;59.50;;;;;;5042924;28;20192;-46
2022/08/21 01:36:31;;;;;;;3.33;1.60;;;18.20;59.50;;;;;;5068054;28;20664;-49
2022/08/21 01:39:02;;;;;;;3.22;1.65;;;18.20;59.50;;;;;;5050798;28;20754;-54
2022/08/21 01:41:33;;;;;;;2.53;1.52;;;18.20;59.40;;;;;;5049073;28;20203;-55
2022/08/21 01:44:04;;;;;;;2.50;1.70;;;18.20;59.40;;;;;;5049611;28;20557;-51
2022/08/21 01:46:35;;;;;;;1.85;1.67;;;18.30;59.40;;;;;;5049074;28;20203;-53
2022/08/21 01:49:06;;;;;;;2.58;1.58;;;18.30;59.50;;;;;;5049192;28;20225;-49
2022/08/21 01:51:39;;;;;;;3.20;1.75;;;18.30;59.40;;;;;;5046908;28;20194;-52
2022/08/21 01:54:10;;;;;;;2.20;1.50;;;18.30;59.40;;;;;;5042179;28;20231;-54
2022/08/21 01:56:44;;;;;;;2.33;1.83;;;18.30;59.50;;;;;;5030433;28;20245;-50
2022/08/21 01:59:15;;;;;;;4.00;1.95;;;18.30;59.50;;;;;;5029580;28;20215;-52
2022/08/21 02:01:46;;;;;;;4.72;2.33;;;18.30;59.50;;;;;;5029304;28;20457;-56
2022/08/21 02:04:17;;;;;;;3.13;2.10;;;18.30;59.40;;;;;;5028955;28;20214;-51
2022/08/21 02:06:50;;;;;;;3.78;2.35;;;18.40;59.40;;;;;;5029466;28;20199;-50
2022/08/21 02:09:22;;;;;;;4.32;2.60;;;18.30;59.30;;;;;;5036869;28;20191;-49
2022/08/21 02:11:53;;;;;;;3.20;2.25;;;18.30;59.20;;;;;;5049401;28;20714;-56
2022/08/21 02:14:24;;;;;;;3.10;2.80;;;18.40;59.30;;;;;;5049157;28;20192;-51
2022/08/21 02:16:55;;;;;;;3.30;2.80;;;18.30;59.30;;;;;;5049219;28;20215;-53
2022/08/21 02:19:26;;;;;;;3.25;2.67;;;18.30;59.20;;;;;;5037197;28;20559;-57
2022/08/21 02:21:58;;;;;;;2.55;2.28;;;18.40;59.30;;;;;;5029193;28;20203;-55
2022/08/21 02:24:29;;;;;;;3.90;2.90;;;18.40;59.40;;;;;;5028800;28;20211;-46
2022/08/21 02:27:00;;;;;;;3.25;2.65;;;18.40;59.90;;;;;;5029793;28;20200;-55
2022/08/21 02:29:31;;;;;;;2.80;2.40;;;18.40;59.50;;;;;;5034991;28;20207;-58
2022/08/21 02:32:02;;;;;;;3.03;2.70;;;18.40;59.40;;;;;;5049543;28;20206;-58
2022/08/21 02:34:33;;;;;;;2.83;2.53;;;18.40;59.30;;;;;;5049349;28;20195;-55
2022/08/21 02:37:05;;;;;;;2.70;2.45;;;18.40;59.30;;;;;;5048978;28;20729;-56
2022/08/21 02:39:37;;;;;;;3.20;2.90;;;18.40;59.20;;;;;;5040805;28;20228;-51
2022/08/21 02:42:08;;;;;;;3.85;3.00;;;18.40;59.20;;;;;;5030187;28;20200;-54
2022/08/21 02:44:39;;;;;;;4.07;3.42;;;18.40;59.20;;;;;;5030147;28;20193;-58
2022/08/21 02:47:10;;;;;;;4.03;3.08;;;18.40;59.20;;;;;;5029325;28;20215;-55
2022/08/21 02:49:41;;;;;;;3.72;3.03;;;18.40;59.10;;;;;;5029174;28;20192;-54
2022/08/21 02:52:14;;;;;;;2.95;2.72;;;18.40;59.20;;;;;;5029808;28;20223;-55
2022/08/21 02:54:45;;;;;;;3.25;2.95;;;18.40;59.20;;;;;;5029546;28;20261;-53
2022/08/21 02:57:16;;;;;;;3.20;2.72;;;18.40;59.20;;;;;;5029463;28;20572;-52
2022/08/21 02:59:47;;;;;;;3.42;3.13;;;18.40;59.20;;;;;;5029749;28;20184;-59
2022/08/21 03:02:17;;;;;;;3.35;2.80;;;18.40;59.20;;;;;;5031428;28;20554;-53
2022/08/21 03:04:48;;;;;;;4.07;3.30;;;18.40;59.20;;;;;;5032955;28;20199;-54
2022/08/21 03:07:21;;;;;;;4.35;3.35;;;18.40;59.20;;;;;;5032779;28;20224;-51
2022/08/21 03:09:52;;;;;;;3.40;3.10;;;18.40;59.20;;;;;;5041014;28;20191;-57
2022/08/21 03:12:22;;;;;;;3.85;3.45;;;18.40;59.20;;;;;;5052560;28;20200;-57
2022/08/21 03:14:53;;;;;;;4.70;4.20;;;18.40;59.10;;;;;;5052654;28;20829;-50
2022/08/21 03:17:24;;;;;;;4.25;3.85;;;18.40;59.10;;;;;;5051359;28;20231;-58
2022/08/21 03:19:55;;;;;;;4.10;3.70;;;18.40;59.10;;;;;;5036186;28;20208;-56
2022/08/21 03:22:27;;;;;;;3.90;3.50;;;18.50;59.20;;;;;;5031749;28;20227;-52
2022/08/21 03:24:59;;;;;;;4.25;3.50;;;18.50;59.20;;;;;;5032322;28;20198;-50
2022/08/21 03:27:30;;;;;;;3.88;3.50;;;18.40;59.10;;;;;;5049784;23;20223;-52
2022/08/21 03:30:01;;;;;;;5.30;3.67;;;18.50;59.10;;;;;;5042974;28;20193;-51
2022/08/21 03:32:32;;;;;;;3.95;3.35;;;18.40;59.10;;;;;;5032521;28;20204;-42
2022/08/21 03:35:02;;;;;;;4.03;3.53;;;18.50;59.20;;;;;;5041473;28;20632;-43
2022/08/21 03:37:35;;;;;;;3.70;3.40;;;18.50;59.30;;;;;;5049526;28;20215;-43
2022/08/21 03:40:07;;;;;;;4.32;3.90;;;18.40;59.20;;;;;;5033350;28;20197;-50
2022/08/21 03:42:38;;;;;;;4.25;3.65;;;18.50;59.20;;;;;;5012186;28;20262;-35
2022/08/21 03:45:10;;;;;;;4.00;3.53;;;18.50;59.20;;;;;;5011934;28;20193;-39
2022/08/21 03:47:41;;;;;;;4.15;3.70;;;18.50;59.20;;;;;;5012005;28;20252;-36
2022/08/21 03:50:12;;;;;;;4.07;3.55;;;18.50;59.20;;;;;;5012028;28;20205;-36
2022/08/21 03:52:44;;;;;;;5.15;3.75;;;18.50;59.20;;;;;;5027174;28;20949;-36
2022/08/21 03:55:15;;;;;;;4.20;3.80;;;18.50;59.20;;;;;;5032168;28;20645;-36
2022/08/21 03:57:46;;;;;;;3.97;3.47;;;18.50;59.20;;;;;;5012028;28;20251;-35
2022/08/21 04:00:18;;;;;;;4.00;3.60;;;18.50;59.20;;;;;;5012102;28;20200;-37
2022/08/21 04:02:50;;;;;;;4.55;3.78;;;18.50;59.20;;;;;;5012106;28;20236;-51
2022/08/21 04:05:26;;;;;;;3.63;3.33;;;18.40;59.20;;;;;;5012240;28;20193;-36
2022/08/21 04:08:01;;;;;;;3.95;3.55;;;18.50;59.20;;;;;;5011264;28;20623;-35
2022/08/21 04:10:33;;;;;;;3.88;3.50;;;18.40;59.20;;;;;;5012089;28;20630;-37
2022/08/21 04:13:05;;;;;;;4.57;3.47;;;18.50;59.20;;;;;;5010629;28;20200;-36
2022/08/21 04:15:36;;;;;;;3.50;3.20;;;18.50;59.20;;;;;;5011462;28;20196;-39
2022/08/21 04:18:08;;;;;;;4.80;4.07;;;18.50;59.20;;;;;;5011444;28;20224;-43
2022/08/21 04:20:39;;;;;;;4.10;3.63;;;18.50;59.20;;;;;;5011249;28;20200;-36
2022/08/21 04:23:11;;;;;;;4.28;3.85;;;18.50;59.20;;;;;;5011630;28;20211;-35
2022/08/21 04:25:42;;;;;;;4.18;3.78;;;18.50;59.20;;;;;;5012210;28;20553;-35
2022/08/21 04:28:13;;;;;;;4.32;3.88;;;18.50;59.20;;;;;;5053904;23;20783;-56
2022/08/21 04:30:44;;;;;;;4.05;3.75;;;18.40;59.20;;;;;;5059659;28;20199;-53
2022/08/21 04:33:14;;;;;;;4.28;3.88;;;18.50;59.20;;;;;;5069420;28;20191;-51
2022/08/21 04:35:45;;;;;;;4.18;3.80;;;18.40;59.20;;;;;;5058392;28;20206;-58
2022/08/21 04:38:18;;;;;;;4.25;3.85;;;18.40;59.30;;;;;;5051405;28;20715;-56
2022/08/21 04:40:50;;;;;;;4.30;3.90;;;18.40;59.30;;;;;;5051090;28;20196;-51
2022/08/21 04:43:21;;;;;;;4.28;3.88;;;18.40;59.30;;;;;;5051207;28;20655;-51
2022/08/21 04:45:53;;;;;;;4.20;3.80;;;18.50;59.30;;;;;;5054810;28;20202;-53
2022/08/21 04:48:25;;;;;;;3.72;3.38;;;18.40;59.30;;;;;;5050175;28;20239;-51
2022/08/21 04:50:59;;;;;;;4.35;3.95;;;18.40;59.30;;;;;;5050726;28;20601;-50
2022/08/21 04:53:36;;;;;;;4.28;3.92;;;18.40;59.30;;;;;;5049924;28;20195;-50
2022/08/21 04:56:10;;;;;;;4.05;3.65;;;18.40;59.20;;;;;;5050801;28;20229;-48
2022/08/21 04:58:42;;;;;;;4.00;3.70;;;18.40;59.20;;;;;;5051021;28;20655;-48
2022/08/21 05:01:17;;;;;;;4.45;4.05;;;18.40;59.20;;;;;;5050701;28;20191;-51
2022/08/21 05:03:55;;;;;;;4.50;4.10;;;18.40;59.30;;;;;;5050730;28;20202;-55
2022/08/21 05:06:26;;;;;;;3.60;3.30;;;18.40;59.60;;;;;;5054607;28;20195;-60
2022/08/21 05:09:00;;;;;;;5.13;4.32;;;18.40;59.30;;;;;;5050335;28;20271;-55
2022/08/21 05:11:31;;;;;;;9.55;4.45;;;18.40;59.50;;;;;;5050001;28;20191;-50
2022/08/21 05:14:02;;;;;;;6.80;5.07;;;18.40;59.50;;;;;;5049630;28;20195;-54
2022/08/21 05:16:33;;;;;;;8.50;4.90;;;18.40;59.50;;;;;;5064491;28;20231;-54
2022/08/21 05:19:04;;;;;;;6.47;4.22;;;18.40;59.50;;;;;;5057356;28;20207;-52
2022/08/21 05:21:35;;;;;;;7.38;5.10;;;18.50;59.50;;;;;;5068938;28;20367;-55
2022/08/21 05:24:08;;;;;;;5.90;4.20;;;18.40;59.50;;;;;;5070551;28;20663;-47
2022/08/21 05:26:39;;;;;;;6.78;4.65;;;18.40;59.40;;;;;;5070683;28;20190;-51
2022/08/21 05:29:10;;;;;;;5.32;4.63;;;18.40;59.50;;;;;;5068072;28;20230;-53
2022/08/21 05:31:41;;;;;;;7.88;5.30;;;18.40;59.50;;;;;;5069327;28;20268;-53
2022/08/21 05:34:12;;;;;;;5.80;5.20;;;18.40;59.50;;;;;;5067640;28;20694;-47
2022/08/21 05:36:43;;;;;;;6.28;4.75;;;18.40;59.50;;;;;;5050429;28;20223;-52
2022/08/21 05:39:16;;;;;;;6.95;4.80;;;18.40;59.50;;;;;;5069123;28;20218;-48
2022/08/21 05:41:47;;;;;;;7.30;4.90;;;18.40;59.60;;;;;;5069389;28;20237;-49
2022/08/21 05:44:18;;;;;;;7.50;4.80;;;18.40;59.50;;;;;;5069581;28;20194;-48
2022/08/21 05:46:48;;;;;;;6.45;4.82;;;18.40;59.50;;;;;;5069433;28;20206;-47
2022/08/21 05:49:19;;;;;;;5.95;4.85;;;18.40;59.50;;;;;;5069470;28;20205;-49
2022/08/21 05:51:50;;;;;;;6.70;5.25;;;18.40;59.50;;;;;;5068626;28;20206;-47
2022/08/21 05:54:22;;;;;;;8.85;5.78;;;18.30;59.40;;;;;;5069223;28;20194;-48
2022/08/21 05:56:53;;;;;;;6.53;4.97;;;18.40;59.50;;;;;;5069371;28;20612;-50
2022/08/21 05:59:24;;;;;;;7.45;5.22;;;18.40;59.60;;;;;;5069329;28;20202;-48
2022/08/21 06:01:54;;;;;;;6.72;4.93;;;18.40;59.60;;;;;;5068753;28;20206;-52
2022/08/21 06:04:25;;;;;;;6.45;4.90;;;18.30;59.50;;;;;;5069061;28;20699;-47
2022/08/21 06:06:56;;;;;;;7.00;5.45;;;18.30;59.60;;;;;;5068707;28;20190;-48
2022/08/21 06:09:28;;;;;;;6.82;5.43;;;18.30;59.60;;;;;;5069194;28;20199;-48
2022/08/21 06:11:59;;;;;;;6.93;5.32;;;18.30;59.60;;;;;;5069161;28;20761;-47
2022/08/21 06:14:30;;;;;;;6.90;5.47;;;18.30;59.60;;;;;;5068978;28;20195;-51
2022/08/21 06:17:06;;;;;;;7.57;5.13;;;18.30;59.60;;;;;;5068823;28;20225;-51
2022/08/21 06:19:37;;;;;;;7.00;5.28;;;18.30;59.60;;;;;;5069542;28;20202;-48
2022/08/21 06:22:08;;;;;;;7.95;5.50;;;18.30;59.50;;;;;;5068309;28;20194;-48
2022/08/21 06:24:41;;;;;;;7.15;5.43;;;18.30;59.50;;;;;;5068033;28;20206;-49
2022/08/21 06:27:12;;;;;;;7.40;5.25;;;18.30;59.60;;;;;;5068712;28;20202;-48
2022/08/21 06:29:42;;;;;;;7.10;5.10;;;18.30;59.60;;;;;;5068843;28;20564;-47
2022/08/21 06:32:15;;;;;;;7.18;5.38;;;18.20;59.50;;;;;;5079126;22;20230;-34
2022/08/21 06:34:46;;;;;;;7.72;5.60;;;18.20;59.60;;;;;;5062615;28;20207;-34
2022/08/21 06:37:17;;;;;;;7.22;4.60;;;18.30;59.60;;;;;;5057672;28;20587;-34
2022/08/21 06:39:49;;;;;;;7.03;5.43;;;18.20;59.60;;;;;;5093024;28;20194;-34
2022/08/21 06:42:20;;;;;;;6.85;5.38;;;18.20;59.60;;;;;;5092901;28;20194;-38
2022/08/21 06:44:51;;;;;;;6.63;5.07;;;18.20;59.60;;;;;;5080815;28;20191;-34
2022/08/21 06:47:21;;;;;;;7.93;5.85;;;18.20;59.60;;;;;;5072134;28;20219;-38
2022/08/21 06:49:52;;;;;;;7.15;5.53;;;18.20;59.60;;;;;;5072123;28;20201;-36
2022/08/21 06:52:23;;;;;;;6.85;5.40;;;18.20;59.60;;;;;;5075883;28;20196;-34
2022/08/21 06:54:55;;;;;;;7.00;5.70;;;18.20;59.60;;;;;;5092574;28;20225;-34
2022/08/21 06:57:27;;;;;;;8.25;5.70;;;18.20;59.60;;;;;;5092427;28;20717;-34
2022/08/21 06:59:57;;;;;;;7.60;5.38;;;18.10;59.50;;;;;;5092310;28;20227;-38
2022/08/21 07:02:28;;;;;;;6.78;5.45;;;18.10;59.60;;;;;;5092532;28;20198;-37
2022/08/21 07:05:00;;;;;;;7.25;5.38;;;18.10;59.60;;;;;;5084339;28;20286;-34
2022/08/21 07:07:32;;;;;;;6.35;5.18;;;18.10;59.70;;;;;;5071526;28;20215;-34
2022/08/21 07:10:05;;;;;;;7.57;5.45;;;18.10;59.70;;;;;;5071568;28;20732;-35
2022/08/21 07:12:36;;;;;;;6.70;5.40;;;18.10;59.70;;;;;;5071615;28;20357;-35
2022/08/21 07:15:07;;;;;;;8.32;5.45;;;18.10;59.70;;;;;;5071741;28;20199;-34
2022/08/21 07:17:38;;;;;;;6.60;5.75;;;18.10;59.70;;;;;;5071078;28;20241;-34
2022/08/21 07:20:09;;;;;;;8.40;5.93;;;18.10;59.70;;;;;;5071437;28;20199;-35
2022/08/21 07:22:42;;;;;;;7.15;5.72;;;18.10;59.60;;;;;;5071537;28;20191;-36
2022/08/21 07:25:15;;;;;;;7.78;5.50;;;18.10;59.60;;;;;;5071809;28;20199;-34
2022/08/21 07:27:46;;;;;;;5.85;5.10;;;18.10;59.60;;;;;;5071538;28;20215;-37
2022/08/21 07:30:16;;;;;;;8.25;5.70;;;18.00;59.60;;;;;;5072123;28;20195;-36
2022/08/21 07:32:48;;;;;;;6.45;4.97;;;18.00;59.60;;;;;;5071433;28;20230;-36
2022/08/21 07:35:19;;;;;;;6.63;5.22;;;18.00;59.60;;;;;;5071536;28;20195;-34
2022/08/21 07:37:51;;;;;;;7.72;6.03;;;17.90;59.60;;;;;;5071037;28;20873;-35
2022/08/21 07:40:23;;;;;;;7.18;5.57;;;18.00;59.70;;;;;;5071512;28;20538;-35
2022/08/21 07:42:54;;;;;;;7.38;5.85;;;17.90;59.70;;;;;;5071398;28;20198;-34
2022/08/21 07:45:26;;;;;;;7.32;5.80;;;17.90;59.70;;;;;;5071469;28;20199;-34
2022/08/21 07:47:56;;;;;;;7.60;5.78;;;17.90;60.40;;;;;;5071054;28;20277;-34
2022/08/21 07:50:28;;;;;;;6.38;5.30;;;17.90;59.70;;;;;;5071363;28;20206;-34
2022/08/21 07:52:58;;;;;;;7.45;5.50;;;17.90;59.70;;;;;;5071040;28;20203;-34
2022/08/21 07:55:31;;;;;;;6.97;5.90;;;17.90;59.70;;;;;;5071237;28;20603;-34
2022/08/21 07:58:02;;;;;;;6.72;5.97;;;17.90;59.60;;;;;;5070981;28;20231;-35
2022/08/21 08:00:33;;;;;;;6.20;5.53;;;17.90;59.70;;;;;;5071298;28;20199;-34
2022/08/21 08:03:03;;;;;;;7.93;6.60;;;17.90;59.70;;;;;;5070976;28;20198;-34
2022/08/21 08:05:36;;;;;;;6.68;5.95;;;17.80;59.70;;;;;;5071081;28;20207;-34
2022/08/21 08:08:07;;;;;;;8.00;5.95;;;17.80;59.70;;;;;;5070999;28;20747;-37
2022/08/21 08:10:41;;;;;;;7.32;5.72;;;17.80;59.70;;;;;;5070754;28;20641;-35
2022/08/21 08:13:12;;;;;;;6.88;5.82;;;17.80;59.80;;;;;;5070624;28;20221;-34
2022/08/21 08:15:42;;;;;;;6.10;5.50;;;17.70;59.70;;;;;;5070759;28;20191;-34
2022/08/21 08:18:13;;;;;;;7.38;6.07;;;17.80;59.70;;;;;;5070648;28;20227;-34
2022/08/21 08:20:44;;;;;;;8.18;5.97;;;17.70;59.70;;;;;;5070824;28;20260;-34
2022/08/21 08:23:15;;;;;;;9.63;6.25;;;17.70;59.70;;;;;;5069819;28;20277;-35
2022/08/21 08:25:48;;;;;;;7.40;5.93;;;17.70;59.70;;;;;;5070537;28;20198;-35
2022/08/21 08:28:19;;;;;;;6.97;5.95;;;17.70;59.70;;;;;;5070669;28;20211;-34
2022/08/21 08:30:50;;;;;;;6.78;5.93;;;17.70;59.70;;;;;;5070530;28;20207;-34
2022/08/21 08:33:21;;;;;;;7.45;6.10;;;17.70;59.70;;;;;;5069757;28;20197;-34
2022/08/21 08:35:53;;;;;;;6.38;5.78;;;17.70;59.70;;;;;;5070127;28;20202;-34
2022/08/21 08:38:25;;;;;;;7.90;6.03;;;17.60;59.70;;;;;;5070159;28;20226;-34
2022/08/21 08:41:08;;;;;;;8.02;5.97;;;17.60;59.80;;;;;;5070269;28;20202;-34
2022/08/21 08:43:38;;;;;;;8.10;6.00;;;17.60;59.80;;;;;;5069906;28;20199;-34
2022/08/21 08:46:16;;;;;;;5.78;5.18;;;17.60;59.80;;;;;;5067691;28;20202;-34
2022/08/21 08:48:53;;;;;;;6.95;5.93;;;17.60;59.80;;;;;;5069624;28;20229;-35
2022/08/21 08:51:28;;;;;;;7.63;5.82;;;17.60;59.90;;;;;;5069544;28;20202;-34
2022/08/21 08:54:02;;;;;;;10.02;6.97;;;17.50;59.80;;;;;;5069426;28;20571;-34
2022/08/21 08:56:36;;;;;;;9.85;7.22;;;17.50;59.80;;;;;;5067167;28;20201;-37
2022/08/21 08:59:15;;;;;;;8.30;6.68;;;17.50;59.90;;;;;;5069974;28;20236;-35
2022/08/21 09:01:46;;;;;;;8.23;6.90;;;17.50;59.80;;;;;;5056903;28;20670;-37
2022/08/21 09:04:26;;;;;;;9.90;6.90;;;17.50;59.80;;;;;;5069075;28;20574;-35
2022/08/21 09:07:12;;;;;;;9.48;7.18;;;17.50;59.90;;;;;;5069848;28;20191;-35
2022/08/21 09:09:54;;;;;;;9.13;7.43;;;17.50;59.90;;;;;;5070279;28;20209;-42
2022/08/21 09:12:36;;;;;;;8.82;7.10;;;17.40;59.90;;;;;;5069695;28;20237;-42
2022/08/21 09:15:16;;;;;;;9.85;7.15;;;17.40;60.00;;;;;;5064774;28;20194;-39
2022/08/21 09:18:11;;;;;;;7.55;6.75;;;17.40;60.00;;;;;;5068978;28;20218;-39
2022/08/21 09:20:49;;;;;;;8.18;6.90;;;17.40;59.90;;;;;;5043017;28;20196;-38
2022/08/21 09:23:32;;;;;;;9.50;7.43;;;17.30;59.90;;;;;;5061520;28;20187;-34
2022/08/21 09:26:08;;;;;;;9.05;7.10;;;17.40;59.90;;;;;;5069443;28;20749;-34
2022/08/21 09:28:42;;;;;;;8.82;6.65;;;17.40;59.90;;;;;;5069761;28;20215;-43
2022/08/21 10:30:52;;;;;;;8.38;7.47;;;16.90;59.90;;;;;;5906335;22;20231;-50
2022/08/21 10:33:36;;;;;;;8.82;7.07;;;16.90;60.00;;;;;;5072590;28;20194;-54
2022/08/21 10:36:14;;;;;;;9.73;8.02;;;16.90;60.00;;;;;;5055281;28;20195;-49
2022/08/21 10:39:09;;;;;;;8.45;7.50;;;16.80;60.00;;;;;;5051987;28;20679;-54
2022/08/21 10:42:06;;;;;;;8.88;7.07;;;16.80;60.00;;;;;;5049885;28;20214;-49
2022/08/21 10:44:48;;;;;;;10.88;7.78;;;16.80;60.00;;;;;;5050873;28;20203;-52
2022/08/21 10:47:26;;;;;;;11.77;7.40;;;16.70;60.00;;;;;;5055585;28;20231;-52
2022/08/21 10:50:02;;;;;;;8.57;7.10;;;16.70;60.10;;;;;;5051906;28;20202;-54
2022/08/21 10:52:51;;;;;;;8.20;6.68;;;16.70;60.10;;;;;;5040233;28;20180;-52
2022/08/21 10:55:24;;;;;;;8.68;7.40;;;16.70;60.10;;;;;;5051581;28;20234;-50
2022/08/21 10:57:59;;;;;;;9.02;7.45;;;16.70;60.00;;;;;;5052406;28;20322;-54
2022/08/21 11:00:37;;;;;;;7.95;7.15;;;16.70;60.00;;;;;;5051214;28;20202;-53
2022/08/21 11:03:13;;;;;;;7.85;6.63;;;16.70;60.00;;;;;;5048908;28;20571;-48
2022/08/21 11:05:49;;;;;;;9.02;7.32;;;16.70;60.00;;;;;;5051378;28;20198;-53
2022/08/21 11:08:25;;;;;;;7.55;6.60;;;16.60;60.00;;;;;;5051908;28;20223;-49
2022/08/21 11:11:03;;;;;;;8.77;7.00;;;16.60;60.00;;;;;;5051681;28;20853;-50
2022/08/21 11:13:40;;;;;;;8.77;6.95;;;16.60;60.00;;;;;;5050312;28;20195;-52
2022/08/21 11:16:19;;;;;;;8.77;6.75;;;16.60;60.10;;;;;;5054528;28;20217;-53
2022/08/21 11:18:56;;;;;;;7.35;6.63;;;16.50;60.00;;;;;;5052833;28;20243;-49
2022/08/21 11:21:39;;;;;;;7.78;6.78;;;16.50;60.00;;;;;;5051125;28;20751;-51
2022/08/21 11:24:26;;;;;;;8.65;6.45;;;16.50;60.10;;;;;;5039916;28;20284;-47
2022/08/21 11:27:03;;;;;;;7.45;6.63;;;16.50;60.00;;;;;;5030450;28;20199;-48
2022/08/21 11:29:38;;;;;;;7.72;6.65;;;16.50;60.00;;;;;;5036637;28;20203;-54
2022/08/21 11:32:27;;;;;;;8.38;6.85;;;16.50;60.00;;;;;;5044391;22;20259;-40
2022/08/21 11:35:11;;;;;;;7.75;6.88;;;16.50;60.00;;;;;;5031320;28;20196;-38
2022/08/21 11:37:53;;;;;;;9.75;6.85;;;16.50;60.00;;;;;;5031353;28;20224;-37
2022/08/21 11:40:40;;;;;;;6.90;6.18;;;16.40;60.00;;;;;;5031339;28;20211;-40
2022/08/21 11:43:18;;;;;;;8.43;6.82;;;16.40;60.00;;;;;;5031331;28;20207;-40
2022/08/21 11:45:54;;;;;;;9.45;7.25;;;16.40;60.00;;;;;;5030618;28;20192;-38
2022/08/21 11:48:38;;;;;;;6.85;6.07;;;16.40;60.00;;;;;;4992037;28;20220;-34
2022/08/21 11:51:15;;;;;;;7.50;6.65;;;16.30;60.00;;;;;;4991400;28;20232;-37
2022/08/21 11:53:54;;;;;;;6.88;5.97;;;16.30;60.00;;;;;;4990790;28;20200;-35
2022/08/21 11:56:30;;;;;;;7.60;6.35;;;16.30;60.00;;;;;;5010593;28;20711;-35
2022/08/21 11:59:03;;;;;;;9.25;6.57;;;16.30;60.00;;;;;;5011264;28;20703;-34
2022/08/21 12:01:40;;;;;;;7.25;6.13;;;16.30;60.00;;;;;;5010945;28;20533;-35
2022/08/21 12:04:18;;;;;;;7.70;6.50;;;16.30;60.00;;;;;;5010557;28;20219;-34
2022/08/21 12:06:51;;;;;;;7.53;6.10;;;16.30;60.00;;;;;;5010837;28;20199;-34
2022/08/21 12:09:36;;;;;;;7.72;6.82;;;16.20;59.90;;;;;;5010699;28;20205;-36
2022/08/21 12:12:15;;;;;;;8.48;7.03;;;16.20;59.90;;;;;;5011078;28;20207;-34
2022/08/21 12:14:47;;;;;;;7.97;6.10;;;16.20;59.90;;;;;;5011217;28;20231;-38
2022/08/21 12:17:23;;;;;;;7.30;6.20;;;16.20;60.00;;;;;;5007102;28;20223;-39
2022/08/21 12:20:02;;;;;;;7.38;6.57;;;16.10;60.00;;;;;;5010246;28;20240;-36
2022/08/21 12:22:43;;;;;;;6.55;5.75;;;16.10;59.90;;;;;;5010636;28;20197;-36
2022/08/21 12:25:20;;;;;;;7.47;6.50;;;16.10;59.90;;;;;;5010852;28;20208;-37
2022/08/21 12:27:53;;;;;;;7.13;5.90;;;16.10;60.00;;;;;;5010438;28;20228;-35
2022/08/21 12:30:37;;;;;;;7.00;5.90;;;16.10;59.90;;;;;;5010558;28;20204;-39
2022/08/21 12:33:21;;;;;;;7.32;6.53;;;16.10;59.90;;;;;;5010067;28;20200;-40
2022/08/21 12:35:53;;;;;;;6.22;5.38;;;16.10;59.90;;;;;;5010396;28;20200;-40
2022/08/21 12:38:28;;;;;;;7.05;5.93;;;16.00;59.80;;;;;;5010681;28;20958;-35
2022/08/21 12:41:01;;;;;;;6.55;5.82;;;16.00;59.80;;;;;;5010620;28;20204;-35
2022/08/21 12:43:37;;;;;;;7.05;5.82;;;16.00;59.80;;;;;;5010547;28;20200;-40
2022/08/21 12:46:10;;;;;;;6.25;5.65;;;16.00;59.80;;;;;;5010452;28;20196;-43
2022/08/21 12:48:49;;;;;;;7.00;6.13;;;16.00;59.90;;;;;;4991863;28;20217;-35
2022/08/21 12:51:21;;;;;;;7.03;5.50;;;16.00;59.90;;;;;;4990647;28;20193;-35
2022/08/21 12:53:55;;;;;;;8.23;6.13;;;16.00;59.80;;;;;;4990515;28;20677;-46
2022/08/21 12:56:39;;;;;;;6.50;5.80;;;15.90;59.80;;;;;;5106353;27;20601;-37
2022/08/21 12:59:14;;;;;;;7.38;5.90;;;15.90;59.80;;;;;;5106853;28;20213;-40
2022/08/21 13:01:51;;;;;;;7.07;5.90;;;15.90;59.80;;;;;;5106323;28;20211;-40
2022/08/21 13:04:25;;;;;;;6.15;5.40;;;15.90;59.90;;;;;;5103755;28;20540;-36
2022/08/21 13:07:00;;;;;;;6.65;5.57;;;15.90;59.80;;;;;;5086502;28;20217;-39
2022/08/21 13:09:33;;;;;;;5.80;5.10;;;15.80;59.70;;;;;;5086242;28;20602;-35
2022/08/21 13:12:10;;;;;;;6.85;5.80;;;15.80;59.70;;;;;;5086408;28;20198;-40
2022/08/21 13:14:43;;;;;;;7.13;6.03;;;15.80;59.80;;;;;;5086506;28;20225;-36
2022/08/21 13:17:16;;;;;;;6.57;5.93;;;15.80;59.80;;;;;;5092818;28;20728;-35
2022/08/21 13:19:57;;;;;;;7.95;5.70;;;15.80;59.80;;;;;;5106376;28;20193;-39
2022/08/21 13:22:29;;;;;;;7.20;5.38;;;15.80;59.80;;;;;;5106360;28;20204;-46
2022/08/21 13:25:00;;;;;;;6.13;5.20;;;15.80;59.80;;;;;;5106162;28;20197;-42
2022/08/21 13:27:34;;;;;;;6.57;5.28;;;15.70;59.80;;;;;;5106434;28;20221;-42
2022/08/21 13:30:08;;;;;;;7.47;6.07;;;15.70;59.80;;;;;;5106271;28;20193;-43
2022/08/21 13:32:41;;;;;;;8.25;6.00;;;15.70;59.80;;;;;;5105776;28;20194;-37
2022/08/21 13:35:14;;;;;;;6.47;5.28;;;15.70;59.80;;;;;;5096603;28;20229;-42
2022/08/21 13:37:47;;;;;;;7.82;5.57;;;15.70;59.80;;;;;;5086093;28;20214;-38
2022/08/21 13:40:20;;;;;;;5.70;5.07;;;15.70;59.80;;;;;;5085708;28;20646;-37
2022/08/21 13:42:53;;;;;;;8.10;6.03;;;15.70;60.60;;;;;;5085887;28;20194;-45
2022/08/21 13:45:28;;;;;;;6.47;5.10;;;15.60;59.70;;;;;;5085712;28;20205;-37
2022/08/21 13:48:01;;;;;;;6.72;5.32;;;15.60;59.70;;;;;;5097367;28;20225;-35
2022/08/21 13:50:32;;;;;;;6.82;5.60;;;15.60;59.70;;;;;;5106015;28;20766;-45
2022/08/21 13:53:05;;;;;;;7.13;5.40;;;15.60;59.80;;;;;;5105891;28;20198;-36
2022/08/21 13:55:41;;;;;;;6.57;5.55;;;15.60;59.80;;;;;;5105675;28;20692;-37
2022/08/21 13:58:14;;;;;;;8.73;5.93;;;15.60;59.70;;;;;;5105996;28;20220;-42
2022/08/21 14:00:51;;;;;;;7.30;5.63;;;15.60;59.80;;;;;;5105979;28;20565;-39
2022/08/21 14:03:35;;;;;;;5.60;4.90;;;15.60;59.80;;;;;;5091156;28;20601;-42
2022/08/21 14:06:13;;;;;;;7.22;5.28;;;15.60;59.90;;;;;;5082156;28;20210;-35
2022/08/21 14:08:49;;;;;;;7.63;5.47;;;15.60;59.80;;;;;;5072061;28;20749;-44
2022/08/21 14:11:20;;;;;;;8.05;5.80;;;15.50;59.80;;;;;;5072007;28;20190;-35
2022/08/21 14:14:00;;;;;;;6.97;5.55;;;15.60;59.80;;;;;;5071927;28;20221;-38
2022/08/21 14:16:43;;;;;;;7.05;5.25;;;15.60;59.90;;;;;;5071646;28;20224;-36
2022/08/21 14:19:25;;;;;;;7.00;5.50;;;15.60;59.90;;;;;;5073066;28;20218;-36